sensor_id;sensor_type;location;lat;lon;timestamp;pressure;altitude;pressure_sealevel;temperature;humidity
19114;BME280;9689;51.052;13.772;2023-04-01T00:02:29;98559.50;;;10.16;74.72
19114;BME280;9689;51.052;13.772;2023-04-01T00:07:33;98569.03;;;9.97;76.44
19114;BME280;9689;51.052;13.772;2023-04-01T00:12:35;98564.13;;;9.91;76.68
19114;BME280;9689;51.052;13.772;2023-04-01T00:17:37;98564.53;;;9.82;76.82
19114;BME280;9689;51.052;13.772;2023-04-01T00:22:41;98565.81;;;9.92;75.55
19114;BME280;9689;51.052;13.772;2023-04-01T00:27:44;98550.69;;;10.00;74.68
19114;BME280;9689;51.052;13.772;2023-04-01T00:32:46;98564.25;;;10.07;74.75
19114;BME280;9689;51.052;13.772;2023-04-01T00:37:49;98565.66;;;10.14;74.19
19114;BME280;9689;51.052;13.772;2023-04-01T00:42:51;98562.28;;;10.12;75.03
19114;BME280;9689;51.052;13.772;2023-04-01T00:47:54;98566.56;;;10.13;75.12
19114;BME280;9689;51.052;13.772;2023-04-01T00:52:58;98561.63;;;10.07;74.99
19114;BME280;9689;51.052;13.772;2023-04-01T00:58:03;98568.75;;;10.03;75.65
19114;BME280;9689;51.052;13.772;2023-04-01T01:03:05;98560.31;;;9.98;75.88
19114;BME280;9689;51.052;13.772;2023-04-01T01:08:15;98558.00;;;9.92;75.81
19114;BME280;9689;51.052;13.772;2023-04-01T01:13:25;98559.94;;;9.87;76.94
19114;BME280;9689;51.052;13.772;2023-04-01T01:18:34;98557.50;;;10.03;75.27
19114;BME280;9689;51.052;13.772;2023-04-01T01:23:57;98553.06;;;10.05;74.70
19114;BME280;9689;51.052;13.772;2023-04-01T01:29:13;98549.91;;;10.17;73.26
19114;BME280;9689;51.052;13.772;2023-04-01T01:34:22;98562.84;;;10.18;73.81
19114;BME280;9689;51.052;13.772;2023-04-01T01:39:31;98561.00;;;10.20;73.38
19114;BME280;9689;51.052;13.772;2023-04-01T01:44:37;98561.09;;;10.19;72.90
19114;BME280;9689;51.052;13.772;2023-04-01T01:49:41;98562.69;;;10.22;73.28
19114;BME280;9689;51.052;13.772;2023-04-01T01:54:50;98563.81;;;10.16;72.89
19114;BME280;9689;51.052;13.772;2023-04-01T01:59:56;98563.78;;;10.17;73.03
19114;BME280;9689;51.052;13.772;2023-04-01T02:05:01;98573.00;;;10.25;72.78
19114;BME280;9689;51.052;13.772;2023-04-01T02:10:06;98554.56;;;10.10;73.45
19114;BME280;9689;51.052;13.772;2023-04-01T02:15:11;98557.00;;;10.13;73.61
19114;BME280;9689;51.052;13.772;2023-04-01T02:20:17;98558.00;;;10.11;73.20
19114;BME280;9689;51.052;13.772;2023-04-01T02:25:25;98555.81;;;10.20;72.59
19114;BME280;9689;51.052;13.772;2023-04-01T02:30:29;98569.50;;;10.26;72.34
19114;BME280;9689;51.052;13.772;2023-04-01T02:35:35;98561.75;;;10.24;72.64
19114;BME280;9689;51.052;13.772;2023-04-01T02:40:46;98564.41;;;10.23;71.87
19114;BME280;9689;51.052;13.772;2023-04-01T02:45:49;98575.72;;;10.22;72.04
19114;BME280;9689;51.052;13.772;2023-04-01T02:50:52;98576.72;;;10.19;71.84
19114;BME280;9689;51.052;13.772;2023-04-01T02:55:55;98580.09;;;10.21;71.93
19114;BME280;9689;51.052;13.772;2023-04-01T03:00:57;98573.19;;;10.20;72.23
19114;BME280;9689;51.052;13.772;2023-04-01T03:06:05;98580.94;;;10.22;71.73
19114;BME280;9689;51.052;13.772;2023-04-01T03:11:09;98587.00;;;10.22;72.17
19114;BME280;9689;51.052;13.772;2023-04-01T03:16:13;98590.50;;;10.21;71.82
19114;BME280;9689;51.052;13.772;2023-04-01T03:21:17;98596.69;;;10.18;71.98
19114;BME280;9689;51.052;13.772;2023-04-01T03:26:22;98594.22;;;10.15;71.63
19114;BME280;9689;51.052;13.772;2023-04-01T03:31:25;98600.34;;;10.14;71.64
19114;BME280;9689;51.052;13.772;2023-04-01T03:36:29;98599.38;;;10.17;71.08
19114;BME280;9689;51.052;13.772;2023-04-01T03:41:35;98594.44;;;10.11;71.92
19114;BME280;9689;51.052;13.772;2023-04-01T03:46:38;98610.81;;;10.13;71.60
19114;BME280;9689;51.052;13.772;2023-04-01T03:51:42;98605.69;;;10.11;71.47
19114;BME280;9689;51.052;13.772;2023-04-01T03:56:47;98613.75;;;10.05;71.68
19114;BME280;9689;51.052;13.772;2023-04-01T04:01:50;98608.22;;;10.13;71.32
19114;BME280;9689;51.052;13.772;2023-04-01T04:06:53;98614.84;;;10.20;70.42
19114;BME280;9689;51.052;13.772;2023-04-01T04:11:57;98611.41;;;10.19;70.38
19114;BME280;9689;51.052;13.772;2023-04-01T04:17:00;98614.16;;;10.16;70.28
19114;BME280;9689;51.052;13.772;2023-04-01T04:22:02;98619.94;;;10.23;70.00
19114;BME280;9689;51.052;13.772;2023-04-01T04:27:06;98628.59;;;10.24;69.64
19114;BME280;9689;51.052;13.772;2023-04-01T04:32:17;98636.69;;;10.16;69.58
19114;BME280;9689;51.052;13.772;2023-04-01T04:37:20;98631.97;;;10.26;69.45
19114;BME280;9689;51.052;13.772;2023-04-01T04:42:24;98640.63;;;10.26;68.88
19114;BME280;9689;51.052;13.772;2023-04-01T04:47:32;98638.94;;;10.25;68.94
19114;BME280;9689;51.052;13.772;2023-04-01T04:52:34;98648.44;;;10.26;69.05
19114;BME280;9689;51.052;13.772;2023-04-01T04:57:38;98646.75;;;10.25;69.00
19114;BME280;9689;51.052;13.772;2023-04-01T05:02:41;98649.41;;;10.24;69.26
19114;BME280;9689;51.052;13.772;2023-04-01T05:07:43;98657.03;;;10.28;69.38
19114;BME280;9689;51.052;13.772;2023-04-01T05:12:47;98652.00;;;10.24;69.47
19114;BME280;9689;51.052;13.772;2023-04-01T05:17:54;98658.97;;;10.23;69.14
19114;BME280;9689;51.052;13.772;2023-04-01T05:22:58;98671.53;;;10.34;69.20
19114;BME280;9689;51.052;13.772;2023-04-01T05:28:03;98667.50;;;10.27;68.79
19114;BME280;9689;51.052;13.772;2023-04-01T05:33:06;98667.59;;;10.25;69.21
19114;BME280;9689;51.052;13.772;2023-04-01T05:38:09;98669.78;;;10.34;69.14
19114;BME280;9689;51.052;13.772;2023-04-01T05:43:13;98678.22;;;10.39;69.35
19114;BME280;9689;51.052;13.772;2023-04-01T05:48:19;98675.59;;;10.39;68.95
19114;BME280;9689;51.052;13.772;2023-04-01T05:53:22;98675.25;;;10.28;68.93
19114;BME280;9689;51.052;13.772;2023-04-01T05:58:26;98677.78;;;10.30;69.52
19114;BME280;9689;51.052;13.772;2023-04-01T06:03:29;98682.16;;;10.29;70.25
19114;BME280;9689;51.052;13.772;2023-04-01T06:08:32;98687.66;;;10.22;70.94
19114;BME280;9689;51.052;13.772;2023-04-01T06:13:47;98685.53;;;10.11;71.45
19114;BME280;9689;51.052;13.772;2023-04-01T06:19:08;98689.56;;;10.18;71.18
19114;BME280;9689;51.052;13.772;2023-04-01T06:24:39;98693.53;;;10.27;70.72
19114;BME280;9689;51.052;13.772;2023-04-01T06:29:58;98697.69;;;10.50;69.53
19114;BME280;9689;51.052;13.772;2023-04-01T06:35:17;98695.06;;;10.70;68.59
19114;BME280;9689;51.052;13.772;2023-04-01T06:40:38;98697.00;;;10.84;67.16
19114;BME280;9689;51.052;13.772;2023-04-01T06:45:50;98698.31;;;10.92;65.72
19114;BME280;9689;51.052;13.772;2023-04-01T06:51:23;98694.25;;;11.06;65.52
19114;BME280;9689;51.052;13.772;2023-04-01T06:56:57;98709.16;;;11.02;65.86
19114;BME280;9689;51.052;13.772;2023-04-01T07:02:09;98709.78;;;11.43;66.72
19114;BME280;9689;51.052;13.772;2023-04-01T07:07:21;98708.19;;;11.41;64.77
19114;BME280;9689;51.052;13.772;2023-04-01T07:12:37;98703.88;;;11.40;64.13
19114;BME280;9689;51.052;13.772;2023-04-01T07:18:05;98711.16;;;11.33;63.92
19114;BME280;9689;51.052;13.772;2023-04-01T07:23:16;98713.13;;;11.28;63.92
19114;BME280;9689;51.052;13.772;2023-04-01T07:28:45;98723.97;;;11.38;63.67
19114;BME280;9689;51.052;13.772;2023-04-01T07:34:06;98728.28;;;11.39;62.68
19114;BME280;9689;51.052;13.772;2023-04-01T07:39:25;98717.91;;;11.37;63.62
19114;BME280;9689;51.052;13.772;2023-04-01T07:44:47;98721.13;;;11.42;63.04
19114;BME280;9689;51.052;13.772;2023-04-01T07:50:11;98741.00;;;11.45;63.31
19114;BME280;9689;51.052;13.772;2023-04-01T07:55:20;98726.31;;;11.78;62.05
19114;BME280;9689;51.052;13.772;2023-04-01T08:00:35;98733.66;;;11.53;62.40
19114;BME280;9689;51.052;13.772;2023-04-01T08:05:58;98736.41;;;11.50;63.39
19114;BME280;9689;51.052;13.772;2023-04-01T08:11:12;98747.41;;;11.56;62.89
19114;BME280;9689;51.052;13.772;2023-04-01T08:16:37;98746.72;;;11.70;62.17
19114;BME280;9689;51.052;13.772;2023-04-01T08:21:54;98766.13;;;12.01;62.09
19114;BME280;9689;51.052;13.772;2023-04-01T08:27:03;98750.59;;;11.98;61.81
19114;BME280;9689;51.052;13.772;2023-04-01T08:32:12;98747.97;;;11.98;60.82
19114;BME280;9689;51.052;13.772;2023-04-01T08:37:23;98758.09;;;12.21;60.01
19114;BME280;9689;51.052;13.772;2023-04-01T08:42:49;98752.78;;;12.23;60.56
19114;BME280;9689;51.052;13.772;2023-04-01T08:53:40;98769.25;;;11.90;60.97
19114;BME280;9689;51.052;13.772;2023-04-01T08:59:03;98767.88;;;11.83;61.46
19114;BME280;9689;51.052;13.772;2023-04-01T09:04:25;98750.19;;;12.05;61.47
19114;BME280;9689;51.052;13.772;2023-04-01T09:09:49;98771.41;;;12.16;60.60
19114;BME280;9689;51.052;13.772;2023-04-01T09:15:05;98760.59;;;12.40;59.62
19114;BME280;9689;51.052;13.772;2023-04-01T09:20:37;98761.47;;;12.23;59.46
19114;BME280;9689;51.052;13.772;2023-04-01T09:25:51;98773.06;;;12.35;59.86
19114;BME280;9689;51.052;13.772;2023-04-01T09:31:08;98774.31;;;12.28;59.20
19114;BME280;9689;51.052;13.772;2023-04-01T09:36:43;98774.63;;;12.55;59.31
19114;BME280;9689;51.052;13.772;2023-04-01T09:41:57;98771.34;;;12.51;59.21
19114;BME280;9689;51.052;13.772;2023-04-01T09:47:21;98767.56;;;12.57;59.15
19114;BME280;9689;51.052;13.772;2023-04-01T09:52:33;98774.25;;;12.62;58.93
19114;BME280;9689;51.052;13.772;2023-04-01T10:04:17;98778.38;;;12.66;58.67
19114;BME280;9689;51.052;13.772;2023-04-01T10:15:33;98783.84;;;12.62;57.80
19114;BME280;9689;51.052;13.772;2023-04-01T10:21:09;98795.16;;;12.62;58.13
19114;BME280;9689;51.052;13.772;2023-04-01T10:26:36;98783.63;;;12.82;58.69
19114;BME280;9689;51.052;13.772;2023-04-01T10:32:43;98785.06;;;12.72;58.00
19114;BME280;9689;51.052;13.772;2023-04-01T10:38:16;98785.75;;;12.58;58.39
19114;BME280;9689;51.052;13.772;2023-04-01T10:49:26;98780.56;;;12.41;59.22
19114;BME280;9689;51.052;13.772;2023-04-01T10:54:46;98783.25;;;12.39;59.12
19114;BME280;9689;51.052;13.772;2023-04-01T11:00:38;98781.81;;;12.67;57.70
19114;BME280;9689;51.052;13.772;2023-04-01T11:06:27;98790.06;;;12.59;58.06
19114;BME280;9689;51.052;13.772;2023-04-01T11:12:00;98789.66;;;12.67;59.30
19114;BME280;9689;51.052;13.772;2023-04-01T11:17:20;98786.28;;;12.98;58.59
19114;BME280;9689;51.052;13.772;2023-04-01T11:23:06;98780.91;;;13.48;57.17
19114;BME280;9689;51.052;13.772;2023-04-01T11:33:52;98782.56;;;13.65;59.49
19114;BME280;9689;51.052;13.772;2023-04-01T11:39:10;98787.25;;;13.90;57.84
19114;BME280;9689;51.052;13.772;2023-04-01T11:44:37;98798.19;;;13.51;56.88
19114;BME280;9689;51.052;13.772;2023-04-01T11:49:52;98810.66;;;12.98;60.49
19114;BME280;9689;51.052;13.772;2023-04-01T11:55:28;98805.19;;;12.70;63.68
19114;BME280;9689;51.052;13.772;2023-04-01T12:00:55;98802.19;;;12.44;66.40
19114;BME280;9689;51.052;13.772;2023-04-01T12:06:02;98801.44;;;12.91;63.50
19114;BME280;9689;51.052;13.772;2023-04-01T12:11:15;98795.72;;;13.16;61.47
19114;BME280;9689;51.052;13.772;2023-04-01T12:16:36;98794.84;;;13.49;60.57
19114;BME280;9689;51.052;13.772;2023-04-01T12:21:48;98789.31;;;13.69;58.73
19114;BME280;9689;51.052;13.772;2023-04-01T12:27:05;98790.47;;;13.64;59.35
19114;BME280;9689;51.052;13.772;2023-04-01T12:32:15;98807.25;;;13.29;59.83
19114;BME280;9689;51.052;13.772;2023-04-01T12:37:27;98795.75;;;13.48;59.91
19114;BME280;9689;51.052;13.772;2023-04-01T12:42:47;98797.16;;;13.06;62.38
19114;BME280;9689;51.052;13.772;2023-04-01T12:48:23;98800.13;;;12.67;64.27
19114;BME280;9689;51.052;13.772;2023-04-01T12:53:39;98807.78;;;12.87;63.68
19114;BME280;9689;51.052;13.772;2023-04-01T12:59:06;98812.97;;;13.20;61.50
19114;BME280;9689;51.052;13.772;2023-04-01T13:04:44;98802.81;;;13.62;60.36
19114;BME280;9689;51.052;13.772;2023-04-01T13:09:59;98803.44;;;13.97;59.05
19114;BME280;9689;51.052;13.772;2023-04-01T13:15:24;98800.53;;;14.31;57.93
19114;BME280;9689;51.052;13.772;2023-04-01T13:20:44;98799.13;;;14.26;58.08
19114;BME280;9689;51.052;13.772;2023-04-01T13:25:54;98806.63;;;14.02;57.78
19114;BME280;9689;51.052;13.772;2023-04-01T13:31:28;98812.13;;;13.97;58.30
19114;BME280;9689;51.052;13.772;2023-04-01T13:36:39;98811.03;;;14.01;55.01
19114;BME280;9689;51.052;13.772;2023-04-01T13:41:58;98812.00;;;14.14;52.09
19114;BME280;9689;51.052;13.772;2023-04-01T13:47:27;98813.50;;;14.19;53.51
19114;BME280;9689;51.052;13.772;2023-04-01T13:52:59;98803.22;;;14.74;52.51
19114;BME280;9689;51.052;13.772;2023-04-01T13:58:23;98797.03;;;15.04;51.88
19114;BME280;9689;51.052;13.772;2023-04-01T14:03:32;98815.22;;;14.78;51.30
19114;BME280;9689;51.052;13.772;2023-04-01T14:08:51;98811.63;;;14.21;53.02
19114;BME280;9689;51.052;13.772;2023-04-01T14:14:04;98815.25;;;14.34;54.46
19114;BME280;9689;51.052;13.772;2023-04-01T14:19:18;98824.56;;;13.94;56.62
19114;BME280;9689;51.052;13.772;2023-04-01T14:24:36;98815.75;;;14.10;55.88
19114;BME280;9689;51.052;13.772;2023-04-01T14:29:54;98827.59;;;14.02;56.07
19114;BME280;9689;51.052;13.772;2023-04-01T14:35:14;98827.00;;;13.97;55.90
19114;BME280;9689;51.052;13.772;2023-04-01T14:40:26;98832.84;;;13.86;56.21
19114;BME280;9689;51.052;13.772;2023-04-01T14:45:45;98838.81;;;13.74;56.16
19114;BME280;9689;51.052;13.772;2023-04-01T14:50:50;98842.81;;;13.79;56.31
19114;BME280;9689;51.052;13.772;2023-04-01T14:56:01;98869.19;;;13.45;57.33
19114;BME280;9689;51.052;13.772;2023-04-01T15:01:13;98848.69;;;13.21;57.92
19114;BME280;9689;51.052;13.772;2023-04-01T15:06:49;98854.50;;;13.58;55.79
19114;BME280;9689;51.052;13.772;2023-04-01T15:12:05;98859.13;;;14.00;53.82
19114;BME280;9689;51.052;13.772;2023-04-01T15:17:44;98863.19;;;13.90;52.77
19114;BME280;9689;51.052;13.772;2023-04-01T15:23:06;98877.88;;;13.77;53.97
19114;BME280;9689;51.052;13.772;2023-04-01T15:28:21;98880.69;;;13.58;54.84
19114;BME280;9689;51.052;13.772;2023-04-01T15:33:42;98884.38;;;13.70;53.66
19114;BME280;9689;51.052;13.772;2023-04-01T15:38:51;98888.28;;;13.14;55.74
19114;BME280;9689;51.052;13.772;2023-04-01T15:43:54;98902.03;;;13.17;56.12
19114;BME280;9689;51.052;13.772;2023-04-01T15:49:04;98902.34;;;13.11;57.59
19114;BME280;9689;51.052;13.772;2023-04-01T15:54:27;98906.50;;;13.15;58.02
19114;BME280;9689;51.052;13.772;2023-04-01T15:59:49;98907.00;;;13.06;57.26
19114;BME280;9689;51.052;13.772;2023-04-01T16:04:57;98905.34;;;12.88;58.64
19114;BME280;9689;51.052;13.772;2023-04-01T16:10:09;98917.13;;;12.62;58.49
19114;BME280;9689;51.052;13.772;2023-04-01T16:15:24;98922.34;;;12.44;57.56
19114;BME280;9689;51.052;13.772;2023-04-01T16:20:43;98927.25;;;12.51;57.72
19114;BME280;9689;51.052;13.772;2023-04-01T16:25:51;98931.25;;;12.40;58.29
19114;BME280;9689;51.052;13.772;2023-04-01T16:30:57;98935.78;;;12.37;59.21
19114;BME280;9689;51.052;13.772;2023-04-01T16:36:04;98937.56;;;12.36;59.33
19114;BME280;9689;51.052;13.772;2023-04-01T16:41:17;98955.97;;;12.33;60.50
19114;BME280;9689;51.052;13.772;2023-04-01T16:46:31;98957.22;;;12.26;61.10
19114;BME280;9689;51.052;13.772;2023-04-01T16:51:41;98969.72;;;12.20;62.15
19114;BME280;9689;51.052;13.772;2023-04-01T16:56:49;98970.84;;;12.14;63.31
19114;BME280;9689;51.052;13.772;2023-04-01T17:01:53;98974.13;;;12.00;64.01
19114;BME280;9689;51.052;13.772;2023-04-01T17:07:04;98989.06;;;11.78;66.17
19114;BME280;9689;51.052;13.772;2023-04-01T17:12:15;98994.13;;;11.62;67.09
19114;BME280;9689;51.052;13.772;2023-04-01T17:17:28;99002.78;;;11.44;68.29
19114;BME280;9689;51.052;13.772;2023-04-01T17:22:37;99012.69;;;11.36;69.20
19114;BME280;9689;51.052;13.772;2023-04-01T17:27:48;99023.59;;;11.25;69.18
19114;BME280;9689;51.052;13.772;2023-04-01T17:33:19;99033.25;;;11.02;71.12
19114;BME280;9689;51.052;13.772;2023-04-01T17:38:37;99034.47;;;10.73;72.27
19114;BME280;9689;51.052;13.772;2023-04-01T17:43:47;99042.75;;;10.83;73.91
19114;BME280;9689;51.052;13.772;2023-04-01T17:48:53;99052.25;;;10.84;76.52
19114;BME280;9689;51.052;13.772;2023-04-01T17:54:05;99057.53;;;10.83;78.00
19114;BME280;9689;51.052;13.772;2023-04-01T17:59:22;99053.09;;;10.85;77.65
19114;BME280;9689;51.052;13.772;2023-04-01T18:04:34;99056.16;;;10.74;78.74
19114;BME280;9689;51.052;13.772;2023-04-01T18:09:44;99059.66;;;10.73;78.62
19114;BME280;9689;51.052;13.772;2023-04-01T18:15:05;99070.03;;;10.74;78.24
19114;BME280;9689;51.052;13.772;2023-04-01T18:20:30;99071.84;;;10.72;78.24
19114;BME280;9689;51.052;13.772;2023-04-01T18:25:34;99076.44;;;10.66;79.11
19114;BME280;9689;51.052;13.772;2023-04-01T18:30:39;99082.41;;;10.69;79.17
19114;BME280;9689;51.052;13.772;2023-04-01T18:35:49;99094.22;;;10.78;78.58
19114;BME280;9689;51.052;13.772;2023-04-01T18:41:00;99100.44;;;10.74;79.29
19114;BME280;9689;51.052;13.772;2023-04-01T18:46:09;99101.50;;;10.70;79.33
19114;BME280;9689;51.052;13.772;2023-04-01T18:51:20;99112.28;;;10.61;79.70
19114;BME280;9689;51.052;13.772;2023-04-01T18:56:29;99123.91;;;10.52;79.42
19114;BME280;9689;51.052;13.772;2023-04-01T19:01:39;99124.06;;;10.47;80.06
19114;BME280;9689;51.052;13.772;2023-04-01T19:06:45;99130.19;;;10.46;80.15
19114;BME280;9689;51.052;13.772;2023-04-01T19:17:18;99147.63;;;10.44;79.96
19114;BME280;9689;51.052;13.772;2023-04-01T19:22:38;99147.72;;;10.41;79.98
19114;BME280;9689;51.052;13.772;2023-04-01T19:27:42;99152.94;;;10.41;80.30
19114;BME280;9689;51.052;13.772;2023-04-01T19:32:57;99159.34;;;10.33;80.22
19114;BME280;9689;51.052;13.772;2023-04-01T19:38:04;99163.03;;;10.27;81.07
19114;BME280;9689;51.052;13.772;2023-04-01T19:43:13;99163.44;;;10.15;82.58
19114;BME280;9689;51.052;13.772;2023-04-01T19:48:36;99176.38;;;10.18;82.13
19114;BME280;9689;51.052;13.772;2023-04-01T19:53:45;99185.13;;;10.15;82.55
19114;BME280;9689;51.052;13.772;2023-04-01T19:58:54;99187.69;;;10.17;82.17
19114;BME280;9689;51.052;13.772;2023-04-01T20:04:03;99193.63;;;10.20;81.88
19114;BME280;9689;51.052;13.772;2023-04-01T20:09:23;99205.63;;;10.25;82.02
19114;BME280;9689;51.052;13.772;2023-04-01T20:14:33;99210.06;;;10.23;81.77
19114;BME280;9689;51.052;13.772;2023-04-01T20:19:42;99215.19;;;10.26;81.60
19114;BME280;9689;51.052;13.772;2023-04-01T20:24:46;99222.03;;;10.28;81.60
19114;BME280;9689;51.052;13.772;2023-04-01T20:29:59;99226.25;;;10.31;81.61
19114;BME280;9689;51.052;13.772;2023-04-01T20:35:31;99227.94;;;10.32;81.10
19114;BME280;9689;51.052;13.772;2023-04-01T20:40:40;99233.09;;;10.33;80.35
19114;BME280;9689;51.052;13.772;2023-04-01T20:45:51;99238.38;;;10.32;80.95
19114;BME280;9689;51.052;13.772;2023-04-01T20:51:04;99251.50;;;10.29;80.69
19114;BME280;9689;51.052;13.772;2023-04-01T20:56:14;99248.22;;;10.24;80.69
19114;BME280;9689;51.052;13.772;2023-04-01T21:01:29;99258.59;;;10.25;81.56
19114;BME280;9689;51.052;13.772;2023-04-01T21:06:49;99258.69;;;10.22;81.66
19114;BME280;9689;51.052;13.772;2023-04-01T21:12:00;99265.72;;;10.18;82.30
19114;BME280;9689;51.052;13.772;2023-04-01T21:17:08;99273.00;;;10.09;83.37
19114;BME280;9689;51.052;13.772;2023-04-01T21:22:33;99280.81;;;9.84;84.16
19114;BME280;9689;51.052;13.772;2023-04-01T21:27:57;99291.03;;;9.62;85.89
19114;BME280;9689;51.052;13.772;2023-04-01T21:33:32;99292.97;;;9.57;86.79
19114;BME280;9689;51.052;13.772;2023-04-01T21:38:51;99298.78;;;9.65;86.27
19114;BME280;9689;51.052;13.772;2023-04-01T21:44:24;99302.81;;;9.47;85.75
19114;BME280;9689;51.052;13.772;2023-04-01T21:49:49;99313.81;;;9.27;87.17
19114;BME280;9689;51.052;13.772;2023-04-01T22:00:35;99319.44;;;9.14;88.49
19114;BME280;9689;51.052;13.772;2023-04-01T22:05:43;99324.75;;;9.09;88.18
19114;BME280;9689;51.052;13.772;2023-04-01T22:10:54;99330.28;;;8.98;88.55
19114;BME280;9689;51.052;13.772;2023-04-01T22:16:08;99336.66;;;8.88;88.86
19114;BME280;9689;51.052;13.772;2023-04-01T22:21:24;99332.63;;;8.76;89.29
19114;BME280;9689;51.052;13.772;2023-04-01T22:26:35;99346.72;;;8.68;89.95
19114;BME280;9689;51.052;13.772;2023-04-01T22:31:45;99356.19;;;8.70;90.25
19114;BME280;9689;51.052;13.772;2023-04-01T22:36:55;99369.28;;;8.66;90.06
19114;BME280;9689;51.052;13.772;2023-04-01T22:42:09;99374.78;;;8.55;89.84
19114;BME280;9689;51.052;13.772;2023-04-01T22:47:22;99374.69;;;8.58;90.48
19114;BME280;9689;51.052;13.772;2023-04-01T22:52:31;99385.13;;;8.57;90.56
19114;BME280;9689;51.052;13.772;2023-04-01T22:57:45;99386.91;;;8.55;89.97
19114;BME280;9689;51.052;13.772;2023-04-01T23:03:04;99402.00;;;8.40;89.99
19114;BME280;9689;51.052;13.772;2023-04-01T23:13:52;99421.31;;;8.29;89.97
19114;BME280;9689;51.052;13.772;2023-04-01T23:18:58;99415.31;;;8.27;89.62
19114;BME280;9689;51.052;13.772;2023-04-01T23:24:11;99424.25;;;8.13;89.08
19114;BME280;9689;51.052;13.772;2023-04-01T23:29:18;99439.88;;;8.12;88.87
19114;BME280;9689;51.052;13.772;2023-04-01T23:34:26;99442.56;;;8.07;89.45
19114;BME280;9689;51.052;13.772;2023-04-01T23:39:32;99455.78;;;7.97;89.41
19114;BME280;9689;51.052;13.772;2023-04-01T23:44:36;99461.13;;;7.90;88.50
19114;BME280;9689;51.052;13.772;2023-04-01T23:49:44;99465.63;;;7.84;88.39
19114;BME280;9689;51.052;13.772;2023-04-01T23:54:52;99475.31;;;7.76;88.97
